createdAt,value
2023-03-22T00:01:30.831Z,29.93
2023-03-22T00:03:58.888Z,28.03
2023-03-22T00:06:26.654Z,30.37
2023-03-22T00:08:54.656Z,26.67
2023-03-22T00:11:25.455Z,30.20
2023-03-22T00:13:54.727Z,33.03
2023-03-22T00:16:22.466Z,25.40
2023-03-22T00:18:49.629Z,28.73
2023-03-22T00:21:17.915Z,29.13
2023-03-22T00:23:45.922Z,24.63
2023-03-22T00:26:14.840Z,24.80
2023-03-22T00:28:42.665Z,22.37
2023-03-22T00:31:10.880Z,26.20
2023-03-22T00:33:38.548Z,28.93
2023-03-22T00:36:12.234Z,26.47
2023-03-22T00:38:42.814Z,27.80
2023-03-22T00:41:22.660Z,29.97
2023-03-22T00:43:51.858Z,25.97
2023-03-22T00:46:21.117Z,27.70
2023-03-22T00:48:49.034Z,30.00
2023-03-22T00:51:16.959Z,31.10
2023-03-22T00:53:44.422Z,28.37
2023-03-22T00:56:15.563Z,27.40
2023-03-22T00:58:43.646Z,28.77
2023-03-22T01:01:15.014Z,29.10
2023-03-22T01:03:44.351Z,28.53
2023-03-22T01:06:12.010Z,28.20
2023-03-22T01:08:39.501Z,26.80
2023-03-22T01:11:08.630Z,28.50
2023-03-22T01:13:37.743Z,25.20
2023-03-22T01:16:07.000Z,26.80
2023-03-22T01:18:35.779Z,28.13
2023-03-22T01:21:03.598Z,26.13
2023-03-22T01:23:31.040Z,30.77
2023-03-22T01:25:58.087Z,29.43
2023-03-22T01:28:27.147Z,26.60
2023-03-22T01:30:55.933Z,29.10
2023-03-22T01:33:23.115Z,25.80
2023-03-22T01:35:50.434Z,29.27
2023-03-22T01:38:17.623Z,19.30
2023-03-22T01:40:44.659Z,27.00
2023-03-22T01:43:17.202Z,25.17
2023-03-22T01:45:53.143Z,24.43
2023-03-22T01:48:48.509Z,25.07
2023-03-22T01:51:25.053Z,24.93
2023-03-22T01:54:14.201Z,27.83
2023-03-22T01:56:42.175Z,27.87
2023-03-22T01:59:14.227Z,28.93
2023-03-22T02:01:41.607Z,26.33
2023-03-22T02:04:19.975Z,30.47
2023-03-22T02:06:48.187Z,30.23
2023-03-22T02:09:21.962Z,31.13
2023-03-22T02:12:13.217Z,29.10
2023-03-22T02:15:11.090Z,28.43
2023-03-22T02:18:20.625Z,31.03
2023-03-22T02:21:34.920Z,32.20
2023-03-22T02:25:19.520Z,31.43
2023-03-22T02:28:53.385Z,28.17
2023-03-22T02:31:48.568Z,28.13
2023-03-22T02:35:06.408Z,26.93
2023-03-22T02:38:12.438Z,28.30
2023-03-22T02:41:22.460Z,27.77
2023-03-22T02:44:47.544Z,30.43
2023-03-22T02:47:43.435Z,27.50
2023-03-22T02:50:29.220Z,28.37
2023-03-22T02:53:19.054Z,29.80
2023-03-22T02:55:57.530Z,30.17
2023-03-22T02:58:48.007Z,29.27
2023-03-22T03:01:32.954Z,31.27
2023-03-22T03:04:07.288Z,30.23
2023-03-22T03:06:40.671Z,28.57
2023-03-22T03:09:08.750Z,29.67
2023-03-22T03:11:38.801Z,26.47
2023-03-22T03:14:05.917Z,30.03
2023-03-22T03:16:36.647Z,27.00
2023-03-22T03:19:41.041Z,26.13
2023-03-22T03:22:47.134Z,26.77
2023-03-22T03:25:46.691Z,26.87
2023-03-22T03:28:57.761Z,27.33
2023-03-22T03:31:55.047Z,28.60
2023-03-22T03:34:49.613Z,29.83
2023-03-22T03:37:23.944Z,30.30
2023-03-22T03:40:36.196Z,29.80
2023-03-22T03:43:06.225Z,31.40
2023-03-22T03:45:35.916Z,29.50
2023-03-22T03:48:17.010Z,27.17
2023-03-22T03:50:44.312Z,26.13
2023-03-22T03:53:11.382Z,24.33
2023-03-22T03:55:38.504Z,25.60
2023-03-22T03:58:08.896Z,25.20
2023-03-22T04:00:40.069Z,24.53
2023-03-22T04:03:07.334Z,25.10
2023-03-22T04:05:35.152Z,24.73
2023-03-22T04:08:02.231Z,24.50
2023-03-22T04:10:29.280Z,24.10
2023-03-22T04:12:56.563Z,24.27
2023-03-22T04:15:24.266Z,20.80
2023-03-22T04:17:51.329Z,24.23
2023-03-22T04:20:19.485Z,23.43
2023-03-22T04:22:48.340Z,24.30
2023-03-22T04:25:18.758Z,22.70
2023-03-22T04:27:51.378Z,24.10
2023-03-22T04:30:22.793Z,23.07
2023-03-22T04:32:50.574Z,23.63
2023-03-22T04:35:18.197Z,23.30
2023-03-22T04:37:45.593Z,22.17
2023-03-22T04:40:15.970Z,22.20
2023-03-22T04:42:45.439Z,22.47
2023-03-22T04:45:13.923Z,21.80
2023-03-22T04:47:41.225Z,19.50
2023-03-22T04:50:09.557Z,20.97
2023-03-22T04:52:39.943Z,22.20
2023-03-22T04:55:07.575Z,21.80
2023-03-22T04:57:35.694Z,22.83
2023-03-22T05:00:06.627Z,22.80
2023-03-22T05:02:34.839Z,22.63
2023-03-22T05:05:01.884Z,21.40
2023-03-22T05:07:29.444Z,22.30
2023-03-22T05:09:56.465Z,19.13
2023-03-22T05:12:23.626Z,22.20
2023-03-22T05:14:50.706Z,20.40
2023-03-22T05:17:18.364Z,18.67
2023-03-22T05:19:45.764Z,20.70
2023-03-22T05:22:13.892Z,19.90
2023-03-22T05:24:41.064Z,21.07
2023-03-22T05:27:08.409Z,21.50
2023-03-22T05:29:36.953Z,20.57
2023-03-22T05:32:04.598Z,19.40
2023-03-22T05:34:35.779Z,19.67
2023-03-22T05:37:03.556Z,17.13
2023-03-22T05:39:31.274Z,19.90
2023-03-22T05:41:58.329Z,22.40
2023-03-22T05:44:25.604Z,22.00
2023-03-22T05:46:52.691Z,22.70
2023-03-22T05:49:21.133Z,20.77
2023-03-22T05:51:48.428Z,22.13
2023-03-22T05:54:15.943Z,21.30
2023-03-22T05:56:44.130Z,21.63
2023-03-22T05:59:11.392Z,21.43
2023-03-22T06:01:58.259Z,21.10
2023-03-22T06:04:28.120Z,21.60
2023-03-22T06:06:55.466Z,21.50
2023-03-22T06:09:22.788Z,20.60
2023-03-22T06:11:49.933Z,20.90
2023-03-22T06:14:17.047Z,21.23
2023-03-22T06:16:44.214Z,21.10
2023-03-22T06:19:11.259Z,20.80
2023-03-22T06:21:38.323Z,20.57
2023-03-22T06:24:05.783Z,18.53
2023-03-22T06:26:32.924Z,20.43
2023-03-22T06:29:00.172Z,20.67
2023-03-22T06:31:27.544Z,20.30
2023-03-22T06:33:55.935Z,19.63
2023-03-22T06:36:23.148Z,20.33
2023-03-22T06:38:50.309Z,19.00
2023-03-22T06:41:17.450Z,19.47
2023-03-22T06:43:44.535Z,18.90
2023-03-22T06:46:11.789Z,19.60
2023-03-22T06:48:38.892Z,18.47
2023-03-22T06:51:06.864Z,18.23
2023-03-22T06:53:36.624Z,18.37
2023-03-22T06:56:04.241Z,17.37
2023-03-22T06:58:31.334Z,17.13
2023-03-22T07:00:58.463Z,16.73
2023-03-22T07:03:25.878Z,16.93
2023-03-22T07:06:00.859Z,15.80
2023-03-22T07:08:28.057Z,15.87
2023-03-22T07:10:55.262Z,15.90
2023-03-22T07:13:22.337Z,17.97
2023-03-22T07:15:49.742Z,16.50
2023-03-22T07:18:17.067Z,16.13
2023-03-22T07:20:45.721Z,16.77
2023-03-22T07:23:13.731Z,16.23
2023-03-22T07:25:41.301Z,16.23
2023-03-22T07:28:10.361Z,16.90
2023-03-22T07:30:41.481Z,14.97
2023-03-22T07:33:10.907Z,15.87
2023-03-22T07:35:41.226Z,15.03
2023-03-22T07:38:08.415Z,15.13
2023-03-22T07:40:36.949Z,15.30
2023-03-22T07:43:04.336Z,14.47
2023-03-22T07:45:31.545Z,14.17
2023-03-22T07:47:58.664Z,14.27
2023-03-22T07:50:25.866Z,14.57
2023-03-22T07:52:55.436Z,14.37
2023-03-22T07:55:22.724Z,12.77
2023-03-22T07:57:49.894Z,13.37
2023-03-22T08:00:18.529Z,13.07
2023-03-22T08:02:46.190Z,12.73
2023-03-22T08:05:13.832Z,13.10
2023-03-22T08:07:41.299Z,13.33
2023-03-22T08:10:09.233Z,13.70
2023-03-22T08:12:36.613Z,13.00
2023-03-22T08:15:04.210Z,13.20
2023-03-22T08:17:31.475Z,11.93
2023-03-22T08:19:58.596Z,12.80
2023-03-22T08:22:29.558Z,12.17
2023-03-22T08:24:56.924Z,12.07
2023-03-22T08:27:24.123Z,11.60
2023-03-22T08:29:51.551Z,12.50
2023-03-22T08:32:19.197Z,12.00
2023-03-22T08:34:46.596Z,12.47
2023-03-22T08:37:15.022Z,11.30
2023-03-22T08:39:44.080Z,11.63
2023-03-22T08:42:11.150Z,11.43
2023-03-22T08:44:38.357Z,11.30
2023-03-22T08:47:05.795Z,10.93
2023-03-22T08:49:34.520Z,11.07
2023-03-22T08:52:01.729Z,11.00
2023-03-22T08:54:38.216Z,11.37
2023-03-22T08:57:09.328Z,10.67
2023-03-22T08:59:36.525Z,9.63
2023-03-22T09:02:03.786Z,11.03
2023-03-22T09:04:31.287Z,10.53
2023-03-22T09:06:58.356Z,10.97
2023-03-22T09:09:25.597Z,10.43
2023-03-22T09:11:52.802Z,11.37
2023-03-22T09:14:19.899Z,10.50
2023-03-22T09:16:47.861Z,10.13
2023-03-22T09:19:14.992Z,10.07
2023-03-22T09:21:42.740Z,10.43
2023-03-22T09:24:09.970Z,10.13
2023-03-22T09:26:37.540Z,10.23
2023-03-22T09:29:04.742Z,10.23
2023-03-22T09:31:32.084Z,9.93
2023-03-22T09:33:59.348Z,9.93
2023-03-22T09:36:26.450Z,8.70
2023-03-22T09:38:53.581Z,9.50
2023-03-22T09:41:41.483Z,10.00
2023-03-22T09:44:32.580Z,8.83
2023-03-22T09:47:02.110Z,10.07
2023-03-22T09:49:53.034Z,9.20
2023-03-22T09:52:21.581Z,8.97
2023-03-22T09:54:50.437Z,9.07
2023-03-22T09:57:37.464Z,8.90
2023-03-22T10:00:50.497Z,8.80
2023-03-22T10:04:16.454Z,8.50
2023-03-22T10:06:54.761Z,8.80
2023-03-22T10:10:00.639Z,9.00
2023-03-22T10:12:59.567Z,8.07
2023-03-22T10:16:03.161Z,8.90
2023-03-22T10:18:47.113Z,9.17
2023-03-22T10:21:17.863Z,9.17
2023-03-22T10:24:11.268Z,7.77
2023-03-22T10:26:45.840Z,8.47
2023-03-22T10:29:32.291Z,7.73
2023-03-22T10:32:17.919Z,7.97
2023-03-22T10:34:46.679Z,7.40
2023-03-22T10:37:29.212Z,7.67
2023-03-22T10:40:00.259Z,8.03
2023-03-22T10:42:31.150Z,7.78
2023-03-22T10:45:13.169Z,7.83
2023-03-22T10:47:58.142Z,7.97
2023-03-22T10:50:39.335Z,6.28
2023-03-22T10:53:29.404Z,6.40
2023-03-22T10:55:57.470Z,6.10
2023-03-22T10:58:34.522Z,6.10
2023-03-22T11:01:33.573Z,6.67
2023-03-22T11:04:03.765Z,5.70
2023-03-22T11:06:38.770Z,5.70
2023-03-22T11:09:32.229Z,5.78
2023-03-22T11:12:00.952Z,6.25
2023-03-22T11:14:37.510Z,5.33
2023-03-22T11:17:10.163Z,5.07
2023-03-22T11:20:01.912Z,4.85
2023-03-22T11:22:42.674Z,5.18
2023-03-22T11:25:38.436Z,4.73
2023-03-22T11:28:07.707Z,5.13
2023-03-22T11:30:36.238Z,4.63
2023-03-22T11:33:17.325Z,4.95
2023-03-22T11:35:53.356Z,5.07
2023-03-22T11:38:48.255Z,4.90
2023-03-22T11:41:35.129Z,3.95
2023-03-22T11:44:15.795Z,3.80
2023-03-22T11:47:00.559Z,3.63
2023-03-22T11:49:51.607Z,3.83
2023-03-22T11:52:26.067Z,3.83
2023-03-22T11:54:55.716Z,4.30
2023-03-22T11:57:31.426Z,3.60
2023-03-22T12:00:21.373Z,3.67
2023-03-22T12:03:06.261Z,3.60
2023-03-22T12:05:38.384Z,3.38
2023-03-22T12:08:42.827Z,3.65
2023-03-22T12:11:51.698Z,3.70
2023-03-22T12:14:41.647Z,3.25
2023-03-22T12:17:28.651Z,3.50
2023-03-22T12:20:30.956Z,2.75
2023-03-22T12:22:58.774Z,3.25
2023-03-22T12:25:35.535Z,2.80
2023-03-22T12:28:18.040Z,2.58
2023-03-22T12:30:53.786Z,3.15
2023-03-22T12:33:35.411Z,2.85
2023-03-22T12:36:06.860Z,2.65
2023-03-22T12:38:59.152Z,2.13
2023-03-22T12:44:46.475Z,2.50
2023-03-22T12:47:27.437Z,2.55
2023-03-22T12:50:11.987Z,2.60
2023-03-22T12:52:47.653Z,2.95
2023-03-22T12:55:40.916Z,2.42
2023-03-22T12:58:24.202Z,2.50
2023-03-22T13:01:20.973Z,2.85
2023-03-22T13:03:54.531Z,2.13
2023-03-22T13:06:50.634Z,2.85
2023-03-22T13:09:27.669Z,3.05
2023-03-22T13:12:16.492Z,3.15
2023-03-22T13:15:41.310Z,2.92
2023-03-22T13:18:40.091Z,2.88
2023-03-22T13:21:31.828Z,2.72
2023-03-22T13:24:16.869Z,3.20
2023-03-22T13:26:51.584Z,3.03
2023-03-22T13:29:37.477Z,3.05
2023-03-22T13:32:28.408Z,2.92
2023-03-22T13:34:56.567Z,3.00
2023-03-22T13:37:47.070Z,2.53
2023-03-22T13:40:34.832Z,2.13
2023-03-22T13:43:26.187Z,1.52
2023-03-22T13:46:19.987Z,1.80
2023-03-22T13:48:47.593Z,1.63
2023-03-22T13:51:25.393Z,1.60
2023-03-22T13:54:18.020Z,1.35
2023-03-22T13:57:01.545Z,1.30
2023-03-22T14:00:06.855Z,1.48
2023-03-22T14:02:42.173Z,1.70
2023-03-22T14:05:22.358Z,1.40
2023-03-22T14:08:00.151Z,1.40
2023-03-22T14:10:44.372Z,1.25
2023-03-22T14:13:48.014Z,1.67
2023-03-22T14:16:48.772Z,1.40
2023-03-22T14:19:31.801Z,1.58
